Time;durP1;ratioP1;P1;durP2;ratioP2;P2;SDS_P1;SDS_P2;PMS_P1;PMS_P2;Temp;Humidity;BMP_temperature;BMP_pressure;BME280_temperature;BME280_humidity;BME280_pressure;Samples;Min_cycle;Max_cycle;Signal;HPM_P1;HPM_P2
2021/10/06 00:00:38;;;;;;;8.13;6.63;;;13.20;99.90;;;;;;6140450;23;20190;-84
2021/10/06 00:03:06;;;;;;;11.35;8.45;;;13.30;99.90;;;;;;6140184;23;20241;-83
2021/10/06 00:05:33;;;;;;;9.20;7.45;;;13.20;99.90;;;;;;6142083;23;20345;-84
2021/10/06 00:08:01;;;;;;;12.98;7.82;;;13.30;99.90;;;;;;6141083;23;20321;-82
2021/10/06 00:10:29;;;;;;;9.73;7.28;;;13.40;99.90;;;;;;6140591;23;20176;-83
2021/10/06 00:12:56;;;;;;;14.43;8.80;;;13.40;99.90;;;;;;6141034;23;20196;-84
2021/10/06 00:15:23;;;;;;;11.85;8.45;;;13.40;99.90;;;;;;6139332;23;20184;-84
2021/10/06 00:17:50;;;;;;;11.15;8.90;;;13.40;99.90;;;;;;6140366;23;20244;-83
2021/10/06 00:20:17;;;;;;;11.98;8.70;;;13.40;99.90;;;;;;6139114;23;20236;-84
2021/10/06 00:22:45;;;;;;;13.55;8.93;;;13.40;99.90;;;;;;6139972;23;20526;-83
2021/10/06 00:25:13;;;;;;;15.45;9.07;;;13.40;99.90;;;;;;6139199;23;20199;-84
2021/10/06 00:27:40;;;;;;;11.63;8.63;;;13.30;99.90;;;;;;6141068;23;20197;-84
2021/10/06 00:30:09;;;;;;;10.10;9.10;;;13.30;99.90;;;;;;6139162;23;20254;-83
2021/10/06 00:32:36;;;;;;;13.80;9.65;;;13.30;99.90;;;;;;6138572;23;20558;-83
2021/10/06 00:35:04;;;;;;;17.80;9.88;;;13.30;99.90;;;;;;6139028;23;20183;-84
2021/10/06 00:37:31;;;;;;;15.85;11.00;;;13.30;99.90;;;;;;6139267;23;20280;-84
2021/10/06 00:39:58;;;;;;;12.15;9.57;;;13.30;99.90;;;;;;6141338;23;20191;-84
2021/10/06 00:42:27;;;;;;;16.13;11.30;;;13.30;99.90;;;;;;6140668;23;20185;-84
2021/10/06 00:44:54;;;;;;;12.48;9.50;;;13.20;99.90;;;;;;6149150;23;20237;-83
2021/10/06 00:47:21;;;;;;;16.67;9.65;;;13.10;99.90;;;;;;6153588;23;20181;-81
2021/10/06 00:49:48;;;;;;;14.18;9.95;;;13.00;99.90;;;;;;6154297;23;21122;-82
2021/10/06 00:52:16;;;;;;;11.50;9.40;;;13.00;99.90;;;;;;6153736;23;20172;-82
2021/10/06 00:54:44;;;;;;;17.13;10.48;;;13.00;99.90;;;;;;6154421;23;20191;-82
2021/10/06 00:57:12;;;;;;;14.27;10.57;;;13.00;99.90;;;;;;6153539;23;20199;-82
2021/10/06 00:59:41;;;;;;;12.40;10.82;;;12.90;99.90;;;;;;6153994;23;20208;-83
2021/10/06 01:02:08;;;;;;;17.40;10.73;;;12.90;99.90;;;;;;6151254;23;20161;-84
2021/10/06 01:04:36;;;;;;;13.95;9.95;;;12.90;99.90;;;;;;6140151;23;20184;-84
2021/10/06 01:07:04;;;;;;;16.35;9.57;;;12.80;99.90;;;;;;6140146;23;20160;-84
2021/10/06 01:09:33;;;;;;;17.27;11.15;;;12.80;99.90;;;;;;6141208;23;20239;-84
2021/10/06 01:12:01;;;;;;;12.63;9.13;;;12.70;99.90;;;;;;6147275;23;20175;-83
2021/10/06 01:14:34;;;;;;;15.80;10.90;;;12.60;99.90;;;;;;6148496;23;20208;-83
2021/10/06 01:17:03;;;;;;;12.63;9.82;;;12.60;99.90;;;;;;6148327;23;20163;-82
2021/10/06 01:19:31;;;;;;;16.88;12.52;;;12.50;99.90;;;;;;6148730;23;20226;-83
2021/10/06 01:22:00;;;;;;;13.23;9.85;;;12.50;99.90;;;;;;6147019;23;20183;-84
2021/10/06 01:24:28;;;;;;;21.33;12.57;;;12.50;99.90;;;;;;6142561;23;20192;-84
2021/10/06 01:26:56;;;;;;;14.00;11.40;;;12.50;99.90;;;;;;6140944;23;20171;-82
2021/10/06 01:29:24;;;;;;;12.73;10.70;;;12.50;99.90;;;;;;6137188;23;20200;-81
2021/10/06 01:31:51;;;;;;;14.10;10.15;;;12.50;99.90;;;;;;6135373;23;20244;-83
2021/10/06 01:34:20;;;;;;;17.13;9.63;;;12.50;99.90;;;;;;6145668;23;20185;-81
2021/10/06 01:36:49;;;;;;;15.50;11.00;;;12.50;99.90;;;;;;6153483;23;20175;-81
2021/10/06 01:39:18;;;;;;;14.38;11.40;;;12.40;99.90;;;;;;6153873;23;20197;-81
2021/10/06 01:41:46;;;;;;;14.88;11.13;;;12.30;99.90;;;;;;6154344;23;20161;-81
2021/10/06 01:44:14;;;;;;;13.30;10.70;;;12.30;99.90;;;;;;6154477;23;20209;-81
2021/10/06 01:46:42;;;;;;;14.93;10.25;;;12.30;99.90;;;;;;6154403;23;20170;-80
2021/10/06 01:49:09;;;;;;;23.77;12.15;;;12.20;99.90;;;;;;6154557;23;20193;-80
2021/10/06 01:51:37;;;;;;;15.27;12.32;;;12.10;99.90;;;;;;6154479;23;20176;-80
2021/10/06 01:54:05;;;;;;;15.90;10.25;;;12.10;99.90;;;;;;6154713;23;20157;-81
2021/10/06 01:56:34;;;;;;;14.82;10.63;;;12.10;99.90;;;;;;6153735;23;20222;-82
2021/10/06 01:59:02;;;;;;;13.32;11.00;;;12.10;99.90;;;;;;6153961;23;20196;-82
2021/10/06 02:01:29;;;;;;;11.68;10.50;;;12.00;99.90;;;;;;6154635;23;20168;-81
2021/10/06 02:03:56;;;;;;;13.60;9.82;;;12.10;99.90;;;;;;6153147;23;20171;-81
2021/10/06 02:06:35;;;;;;;14.30;9.82;;;12.10;99.90;;;;;;6154508;23;20222;-82
2021/10/06 02:09:02;;;;;;;13.07;9.55;;;12.10;99.90;;;;;;6153547;23;20191;-81
2021/10/06 02:11:30;;;;;;;10.98;9.13;;;12.00;99.90;;;;;;6142483;23;20262;-84
2021/10/06 02:13:58;;;;;;;11.70;9.35;;;12.00;99.90;;;;;;6139960;23;20174;-83
2021/10/06 02:16:25;;;;;;;13.23;9.55;;;12.00;99.90;;;;;;6140858;23;20201;-83
2021/10/06 02:18:52;;;;;;;14.95;10.05;;;12.00;99.90;;;;;;6140232;23;20201;-84
2021/10/06 02:21:20;;;;;;;14.32;9.88;;;12.00;99.90;;;;;;6139685;23;20179;-83
2021/10/06 02:23:50;;;;;;;11.52;9.90;;;12.00;99.90;;;;;;6144356;23;20185;-81
2021/10/06 02:26:17;;;;;;;12.73;9.52;;;12.00;99.90;;;;;;6145650;23;20177;-84
2021/10/06 02:28:44;;;;;;;13.98;9.13;;;12.00;99.90;;;;;;6144194;23;20681;-84
2021/10/06 02:31:12;;;;;;;14.77;9.05;;;12.00;99.90;;;;;;6142314;23;20174;-82
2021/10/06 02:33:40;;;;;;;15.95;9.50;;;12.00;99.90;;;;;;6142631;23;20180;-84
2021/10/06 02:36:07;;;;;;;17.15;9.18;;;11.90;99.90;;;;;;6146618;23;20170;-83
2021/10/06 02:38:34;;;;;;;13.20;9.50;;;11.90;99.90;;;;;;6148138;23;20727;-84
2021/10/06 02:41:01;;;;;;;12.23;10.00;;;11.90;99.90;;;;;;6147203;23;20263;-82
2021/10/06 02:43:28;;;;;;;15.75;9.52;;;11.90;99.90;;;;;;6146491;23;20183;-83
2021/10/06 02:45:55;;;;;;;10.82;9.65;;;11.90;99.90;;;;;;6146505;23;20178;-82
2021/10/06 02:48:24;;;;;;;13.80;8.82;;;11.80;99.90;;;;;;6145560;23;20205;-83
2021/10/06 02:51:05;;;;;;;11.10;9.32;;;11.80;99.90;;;;;;6145210;23;20167;-83
2021/10/06 02:53:33;;;;;;;12.63;8.98;;;11.80;99.90;;;;;;6146192;23;20195;-83
2021/10/06 02:56:00;;;;;;;14.75;8.38;;;11.90;99.90;;;;;;6145996;23;20201;-81
2021/10/06 02:58:27;;;;;;;8.70;7.57;;;11.90;99.90;;;;;;6145318;23;20223;-84
2021/10/06 03:00:54;;;;;;;11.63;8.07;;;12.00;99.90;;;;;;6145382;23;20234;-82
2021/10/06 03:03:21;;;;;;;11.40;8.40;;;12.10;99.90;;;;;;6146243;23;20187;-83
2021/10/06 03:05:52;;;;;;;10.88;6.85;;;12.00;99.90;;;;;;6145481;23;20235;-82
2021/10/06 03:08:22;;;;;;;9.00;6.15;;;12.00;99.90;;;;;;6144735;23;20197;-83
2021/10/06 03:10:49;;;;;;;13.85;7.53;;;12.10;99.90;;;;;;6145685;23;20182;-83
2021/10/06 03:13:17;;;;;;;10.88;8.02;;;12.10;99.90;;;;;;6145589;23;20229;-84
2021/10/06 03:15:44;;;;;;;7.38;6.22;;;12.10;99.90;;;;;;6146921;23;20219;-84
2021/10/06 03:18:11;;;;;;;9.63;6.85;;;12.20;99.90;;;;;;6149317;23;20203;-83
2021/10/06 03:20:38;;;;;;;7.82;6.18;;;12.20;99.90;;;;;;6149271;23;20178;-84
2021/10/06 03:23:08;;;;;;;10.43;6.15;;;12.20;99.90;;;;;;6148573;23;20194;-83
2021/10/06 03:25:35;;;;;;;10.18;7.20;;;12.20;99.90;;;;;;6148958;23;20182;-83
2021/10/06 03:28:06;;;;;;;9.43;6.22;;;12.20;99.90;;;;;;6149268;23;20178;-82
2021/10/06 03:30:34;;;;;;;11.43;6.82;;;12.30;99.90;;;;;;6148952;23;20175;-83
2021/10/06 03:33:01;;;;;;;6.25;5.43;;;12.30;99.90;;;;;;6148290;23;20255;-81
2021/10/06 03:35:34;;;;;;;10.27;5.85;;;12.40;99.90;;;;;;6148602;23;20667;-82
2021/10/06 03:38:01;;;;;;;7.85;5.97;;;12.30;99.90;;;;;;6149773;23;20207;-83
2021/10/06 03:40:30;;;;;;;14.20;6.70;;;12.40;99.90;;;;;;6149107;23;20650;-83
2021/10/06 03:43:05;;;;;;;11.18;6.30;;;12.40;99.90;;;;;;6150054;23;20175;-83
2021/10/06 03:45:32;;;;;;;8.88;6.10;;;12.40;99.90;;;;;;6122395;23;20183;-82
2021/10/06 03:48:01;;;;;;;11.30;6.15;;;12.40;99.90;;;;;;6148082;23;20212;-83
2021/10/06 03:50:28;;;;;;;8.75;6.50;;;12.40;99.90;;;;;;6146899;23;20180;-82
2021/10/06 03:53:06;;;;;;;10.40;7.20;;;12.50;99.90;;;;;;6147894;23;20200;-82
2021/10/06 03:55:50;;;;;;;9.18;6.70;;;12.50;99.90;;;;;;6146701;23;20215;-82
2021/10/06 03:58:17;;;;;;;8.90;7.25;;;12.50;99.90;;;;;;6147301;23;20239;-83
2021/10/06 04:00:44;;;;;;;11.32;5.95;;;12.60;99.90;;;;;;6148750;23;20209;-83
2021/10/06 04:03:14;;;;;;;10.40;7.32;;;12.60;99.90;;;;;;6152007;23;20161;-82
2021/10/06 04:05:50;;;;;;;10.25;6.53;;;12.70;99.90;;;;;;6149646;23;20177;-83
2021/10/06 04:08:19;;;;;;;9.70;7.65;;;12.70;99.90;;;;;;6124725;23;20218;-83
2021/10/06 04:10:47;;;;;;;11.77;7.03;;;12.80;99.90;;;;;;6150589;23;20172;-83
2021/10/06 04:13:15;;;;;;;13.80;7.07;;;12.80;99.90;;;;;;6151762;23;20214;-82
2021/10/06 04:15:42;;;;;;;12.52;7.15;;;12.80;99.90;;;;;;6151048;23;20190;-83
2021/10/06 04:18:10;;;;;;;9.38;6.82;;;12.70;99.90;;;;;;6154208;23;20200;-83
2021/10/06 04:20:37;;;;;;;8.98;7.50;;;12.70;99.90;;;;;;6154140;23;20236;-84
2021/10/06 04:23:04;;;;;;;8.85;7.50;;;12.70;99.90;;;;;;6153691;23;20188;-83
2021/10/06 04:25:31;;;;;;;8.32;7.30;;;12.60;99.90;;;;;;6152031;23;20184;-84
2021/10/06 04:28:05;;;;;;;10.38;8.25;;;12.60;99.90;;;;;;6142086;23;20205;-83
2021/10/06 04:30:33;;;;;;;10.05;8.38;;;12.60;99.90;;;;;;6141617;23;20168;-83
2021/10/06 04:33:00;;;;;;;15.70;9.43;;;12.50;99.90;;;;;;6139825;23;20609;-85
2021/10/06 04:35:27;;;;;;;10.60;9.50;;;12.50;99.90;;;;;;6141326;23;20169;-84
2021/10/06 04:37:54;;;;;;;16.38;8.68;;;12.50;99.90;;;;;;6140257;23;20215;-84
2021/10/06 04:40:31;;;;;;;10.68;8.68;;;12.50;99.90;;;;;;6141214;23;20206;-83
2021/10/06 04:42:59;;;;;;;10.27;8.40;;;12.50;99.90;;;;;;6140651;23;20192;-83
2021/10/06 04:45:27;;;;;;;10.25;8.52;;;12.50;99.90;;;;;;6139401;23;20173;-84
2021/10/06 04:47:54;;;;;;;11.57;9.10;;;12.50;99.90;;;;;;6140897;23;20204;-84
2021/10/06 04:50:22;;;;;;;10.05;8.90;;;12.50;99.90;;;;;;6139850;23;20176;-84
2021/10/06 04:52:49;;;;;;;11.95;9.07;;;12.50;99.90;;;;;;6140172;23;20196;-82
2021/10/06 04:55:16;;;;;;;16.75;10.60;;;12.40;99.90;;;;;;6141624;23;20191;-84
2021/10/06 04:57:46;;;;;;;11.35;8.68;;;12.30;99.90;;;;;;6152870;23;20202;-82
2021/10/06 05:00:15;;;;;;;13.52;8.60;;;12.40;99.90;;;;;;6153912;23;20183;-83
2021/10/06 05:02:42;;;;;;;10.40;9.35;;;12.30;99.90;;;;;;6154333;23;20231;-82
2021/10/06 05:05:15;;;;;;;20.60;10.95;;;12.30;99.90;;;;;;6153917;23;20177;-82
2021/10/06 05:07:42;;;;;;;11.32;9.45;;;12.40;99.90;;;;;;6154034;23;20185;-80
2021/10/06 05:10:10;;;;;;;12.45;10.02;;;12.40;99.90;;;;;;6153088;23;20170;-82
2021/10/06 05:12:37;;;;;;;10.68;9.68;;;12.40;99.90;;;;;;6153174;23;20229;-83
2021/10/06 05:15:05;;;;;;;10.43;8.95;;;12.40;99.90;;;;;;6148990;23;20215;-82
2021/10/06 05:17:33;;;;;;;18.05;10.80;;;12.50;99.90;;;;;;6146593;23;20209;-83
2021/10/06 05:20:00;;;;;;;11.90;10.05;;;12.50;99.90;;;;;;6145432;23;20207;-83
2021/10/06 05:22:27;;;;;;;13.05;8.75;;;12.40;99.90;;;;;;6146072;23;20286;-83
2021/10/06 05:24:55;;;;;;;9.23;7.90;;;12.40;99.90;;;;;;6144835;23;20713;-84
2021/10/06 05:27:22;;;;;;;12.43;8.90;;;12.40;99.90;;;;;;6144135;23;20183;-84
2021/10/06 05:29:49;;;;;;;15.68;9.73;;;12.50;99.90;;;;;;6145237;23;20179;-84
2021/10/06 05:32:16;;;;;;;10.27;8.70;;;12.50;99.90;;;;;;6146733;23;20184;-84
2021/10/06 05:34:45;;;;;;;10.40;8.88;;;12.30;99.90;;;;;;6147577;23;20180;-83
2021/10/06 05:37:12;;;;;;;9.13;8.23;;;12.40;99.90;;;;;;6145847;23;20185;-83
2021/10/06 05:39:39;;;;;;;17.30;8.63;;;12.30;99.90;;;;;;6145613;23;20223;-84
2021/10/06 05:42:09;;;;;;;14.32;8.40;;;12.40;99.90;;;;;;6145522;23;20198;-83
2021/10/06 05:44:36;;;;;;;7.50;6.78;;;12.40;99.90;;;;;;6140815;23;20183;-83
2021/10/06 05:47:03;;;;;;;12.65;8.50;;;12.40;99.90;;;;;;6138598;23;20195;-83
2021/10/06 05:49:30;;;;;;;9.25;7.85;;;12.40;99.90;;;;;;6138649;23;20680;-83
2021/10/06 05:51:59;;;;;;;8.90;7.70;;;12.50;99.90;;;;;;6137687;23;20177;-83
2021/10/06 05:54:26;;;;;;;8.35;6.72;;;12.40;99.90;;;;;;6138969;23;20183;-83
2021/10/06 05:56:53;;;;;;;12.90;8.40;;;12.40;99.90;;;;;;6138365;23;20180;-84
2021/10/06 05:59:20;;;;;;;7.47;6.40;;;12.50;99.90;;;;;;6137785;23;20211;-84
2021/10/06 06:01:53;;;;;;;7.18;6.47;;;12.50;99.90;;;;;;6140239;23;20230;-84
2021/10/06 06:04:21;;;;;;;16.35;8.10;;;12.60;99.90;;;;;;6139112;23;20848;-84
2021/10/06 06:06:48;;;;;;;10.40;6.80;;;12.60;99.90;;;;;;6140097;23;20189;-83
2021/10/06 06:09:19;;;;;;;9.73;6.75;;;12.60;99.90;;;;;;6140655;23;20197;-83
2021/10/06 06:11:52;;;;;;;9.63;7.10;;;12.60;99.90;;;;;;6142488;23;20354;-83
2021/10/06 06:14:19;;;;;;;6.97;6.22;;;12.70;99.90;;;;;;6139800;23;20183;-83
2021/10/06 06:16:47;;;;;;;7.47;6.22;;;12.70;99.90;;;;;;6138235;23;20184;-84
2021/10/06 06:19:14;;;;;;;12.45;6.82;;;12.60;99.90;;;;;;6138357;23;20208;-84
2021/10/06 06:21:42;;;;;;;12.65;8.68;;;12.60;99.90;;;;;;6139624;23;20216;-84
2021/10/06 06:24:20;;;;;;;11.57;6.32;;;12.60;99.90;;;;;;6139853;23;20269;-83
2021/10/06 06:26:47;;;;;;;10.60;6.00;;;12.70;99.90;;;;;;6138422;23;20168;-82
2021/10/06 06:29:14;;;;;;;11.13;5.82;;;12.80;99.90;;;;;;6138771;23;20196;-83
2021/10/06 06:31:41;;;;;;;7.10;6.40;;;12.90;99.90;;;;;;6138514;23;20173;-83
2021/10/06 06:34:08;;;;;;;7.65;5.43;;;13.00;99.90;;;;;;6138131;23;20179;-83
2021/10/06 06:36:38;;;;;;;7.50;6.18;;;13.30;99.90;;;;;;6138115;23;20185;-83
2021/10/06 06:39:05;;;;;;;5.90;4.68;;;14.20;99.90;;;;;;6137120;23;20274;-82
2021/10/06 06:41:34;;;;;;;7.18;4.38;;;15.10;99.90;;;;;;6141989;23;20238;-82
2021/10/06 06:44:02;;;;;;;6.30;4.53;;;15.80;99.90;;;;;;6141122;23;20682;-83
2021/10/06 06:46:40;;;;;;;6.50;3.95;;;15.80;99.90;;;;;;6138274;23;20171;-84
2021/10/06 06:49:07;;;;;;;5.75;4.95;;;15.50;99.90;;;;;;6138241;23;20200;-84
2021/10/06 06:51:34;;;;;;;7.18;4.95;;;14.90;99.90;;;;;;6138582;23;20185;-83
2021/10/06 06:54:13;;;;;;;7.05;3.85;;;14.60;99.90;;;;;;6138764;23;20164;-83
2021/10/06 06:56:47;;;;;;;7.32;3.70;;;14.40;99.90;;;;;;6139764;23;20237;-82
2021/10/06 06:59:15;;;;;;;10.55;4.18;;;14.30;99.90;;;;;;6139838;23;20224;-82
2021/10/06 07:01:42;;;;;;;4.82;3.67;;;14.70;99.90;;;;;;6139510;23;20174;-83
2021/10/06 07:04:10;;;;;;;7.73;3.33;;;15.70;99.90;;;;;;6139793;23;20170;-84
2021/10/06 07:06:37;;;;;;;6.70;3.43;;;17.00;99.90;;;;;;6140336;23;20407;-84
2021/10/06 07:09:05;;;;;;;10.98;3.85;;;17.20;99.90;;;;;;6141149;23;20443;-84
2021/10/06 07:11:35;;;;;;;10.88;5.07;;;16.50;99.90;;;;;;6140168;23;20195;-84
2021/10/06 07:14:03;;;;;;;5.88;4.47;;;16.20;99.90;;;;;;6140215;23;20170;-83
2021/10/06 07:16:34;;;;;;;6.03;4.40;;;16.00;99.90;;;;;;6139454;23;20181;-84
2021/10/06 07:19:08;;;;;;;8.52;4.38;;;15.70;99.90;;;;;;6139274;23;20195;-85
2021/10/06 07:21:35;;;;;;;7.57;5.68;;;15.10;99.90;;;;;;6142539;23;20157;-83
2021/10/06 07:24:02;;;;;;;5.35;4.47;;;14.80;99.90;;;;;;6140462;23;20261;-83
2021/10/06 07:26:34;;;;;;;9.27;3.70;;;14.60;99.90;;;;;;6139786;23;20233;-84
2021/10/06 07:29:05;;;;;;;6.00;4.38;;;14.60;99.90;;;;;;6140345;23;20207;-85
2021/10/06 07:31:32;;;;;;;10.65;4.88;;;14.50;99.90;;;;;;6139521;23;20170;-85
2021/10/06 07:33:59;;;;;;;8.25;5.15;;;14.50;99.90;;;;;;6140682;23;20178;-83
2021/10/06 07:36:26;;;;;;;9.57;4.20;;;14.50;99.90;;;;;;6139381;23;20205;-84
2021/10/06 07:38:54;;;;;;;6.72;4.20;;;14.40;99.90;;;;;;6138466;23;20232;-83
2021/10/06 07:41:26;;;;;;;7.25;4.38;;;14.60;99.90;;;;;;6138295;23;20198;-83
2021/10/06 07:43:58;;;;;;;10.02;4.57;;;15.00;99.90;;;;;;6140582;23;20215;-83
2021/10/06 07:46:29;;;;;;;6.75;4.10;;;15.60;99.90;;;;;;6140554;23;20250;-83
2021/10/06 07:49:06;;;;;;;7.65;4.00;;;15.80;99.90;;;;;;6138664;23;20202;-84
2021/10/06 07:51:40;;;;;;;5.77;3.93;;;16.30;99.90;;;;;;6141594;23;20200;-83
2021/10/06 07:54:14;;;;;;;4.20;3.10;;;17.30;99.90;;;;;;6118512;23;21011;-84
2021/10/06 07:56:49;;;;;;;11.03;3.00;;;17.60;99.90;;;;;;6142472;23;20399;-84
2021/10/06 07:59:17;;;;;;;7.70;3.10;;;17.60;99.90;;;;;;6141569;23;20439;-83
2021/10/06 08:01:46;;;;;;;4.60;3.03;;;16.80;99.90;;;;;;6140404;23;20437;-84
2021/10/06 08:04:13;;;;;;;6.43;3.00;;;16.80;99.90;;;;;;6142590;23;20423;-82
2021/10/06 08:06:40;;;;;;;10.60;2.97;;;16.80;99.90;;;;;;6141594;23;20416;-82
2021/10/06 08:09:08;;;;;;;7.47;3.42;;;16.60;99.90;;;;;;6144324;23;20460;-83
2021/10/06 08:11:36;;;;;;;5.00;4.07;;;16.20;99.90;;;;;;6143208;23;20228;-83
2021/10/06 08:14:04;;;;;;;5.13;2.60;;;15.80;99.90;;;;;;6143636;23;20187;-84
2021/10/06 08:16:31;;;;;;;5.18;3.05;;;15.50;99.90;;;;;;6141114;23;20236;-84
2021/10/06 08:19:00;;;;;;;5.07;3.55;;;15.40;99.90;;;;;;6141476;23;20581;-84
2021/10/06 08:21:27;;;;;;;9.50;3.17;;;15.10;99.90;;;;;;6143079;23;20223;-83
2021/10/06 08:23:55;;;;;;;6.07;3.15;;;15.10;99.90;;;;;;6142111;23;20192;-82
2021/10/06 08:26:22;;;;;;;8.48;3.30;;;15.10;99.90;;;;;;6147325;23;20170;-83
2021/10/06 08:28:49;;;;;;;4.97;2.85;;;15.00;99.90;;;;;;6147370;23;20206;-85
2021/10/06 08:31:16;;;;;;;7.78;4.07;;;14.90;99.90;;;;;;6145922;23;20258;-83
2021/10/06 08:33:44;;;;;;;6.30;3.10;;;14.90;99.90;;;;;;6142998;23;20202;-83
2021/10/06 08:36:15;;;;;;;5.57;3.05;;;15.00;99.90;;;;;;6141163;23;20178;-83
2021/10/06 08:38:42;;;;;;;7.72;3.03;;;15.10;99.90;;;;;;6142285;23;20185;-84
2021/10/06 08:41:09;;;;;;;8.77;4.03;;;15.00;99.90;;;;;;6141358;23;20194;-86
2021/10/06 08:43:38;;;;;;;4.15;3.50;;;14.80;99.90;;;;;;6142638;23;20233;-83
2021/10/06 08:46:05;;;;;;;10.73;6.30;;;15.00;99.90;;;;;;6142212;23;20188;-84
2021/10/06 08:48:35;;;;;;;11.40;3.28;;;15.20;99.90;;;;;;6140842;23;20196;-82
2021/10/06 08:51:02;;;;;;;7.93;3.43;;;15.80;99.90;;;;;;6142811;23;20180;-84
2021/10/06 08:53:31;;;;;;;12.03;2.97;;;16.90;99.90;;;;;;6143534;23;20484;-84
2021/10/06 08:55:58;;;;;;;3.60;2.80;;;16.90;99.90;;;;;;6143710;23;20440;-82
2021/10/06 08:58:25;;;;;;;3.83;3.28;;;16.60;99.90;;;;;;6151866;23;20234;-82
2021/10/06 09:00:56;;;;;;;7.13;3.78;;;16.20;99.90;;;;;;6151561;23;20188;-83
2021/10/06 09:03:29;;;;;;;4.68;3.10;;;16.10;99.90;;;;;;6150492;23;20169;-82
2021/10/06 09:06:07;;;;;;;5.43;2.75;;;15.70;99.90;;;;;;6153294;23;20182;-82
2021/10/06 09:08:38;;;;;;;6.50;3.15;;;15.60;99.90;;;;;;6153233;23;20218;-83
2021/10/06 09:11:07;;;;;;;5.85;3.42;;;15.50;99.90;;;;;;6153657;23;20154;-83
2021/10/06 09:13:36;;;;;;;5.50;4.18;;;15.50;99.90;;;;;;6153799;23;20146;-83
2021/10/06 09:16:04;;;;;;;6.00;2.83;;;15.40;99.90;;;;;;6153763;23;20169;-82
2021/10/06 09:18:33;;;;;;;6.28;3.28;;;15.40;99.90;;;;;;6153705;23;20210;-82
2021/10/06 09:21:02;;;;;;;5.10;3.60;;;15.40;99.90;;;;;;6153639;23;20202;-81
2021/10/06 09:23:30;;;;;;;4.18;3.72;;;15.40;99.90;;;;;;6152470;23;20224;-82
2021/10/06 09:25:59;;;;;;;5.90;3.58;;;15.30;99.90;;;;;;6151735;23;20180;-83
2021/10/06 09:28:29;;;;;;;5.03;3.80;;;15.20;99.90;;;;;;6147991;23;20193;-82
2021/10/06 09:30:59;;;;;;;5.93;3.15;;;14.90;99.90;;;;;;6147971;23;20242;-83
2021/10/06 09:33:38;;;;;;;6.90;4.22;;;14.90;99.90;;;;;;6147799;23;20162;-83
2021/10/06 09:36:11;;;;;;;6.75;3.90;;;14.90;99.90;;;;;;6139843;23;20154;-82
2021/10/06 09:38:45;;;;;;;4.60;3.97;;;14.80;99.90;;;;;;6142241;23;20201;-82
2021/10/06 09:41:36;;;;;;;6.70;3.53;;;15.00;99.90;;;;;;6147150;23;20570;-83
2021/10/06 09:44:08;;;;;;;7.97;4.00;;;15.20;99.90;;;;;;6142230;23;20209;-83
2021/10/06 09:46:46;;;;;;;5.93;3.72;;;15.40;99.90;;;;;;6153200;23;20146;-83
2021/10/06 09:49:22;;;;;;;5.05;3.65;;;15.70;99.90;;;;;;6152952;23;20221;-81
2021/10/06 09:51:50;;;;;;;3.67;3.38;;;15.60;99.90;;;;;;6153070;23;20210;-81
2021/10/06 09:54:18;;;;;;;4.40;2.88;;;15.50;99.90;;;;;;6153473;23;20158;-80
2021/10/06 09:56:49;;;;;;;4.60;3.25;;;15.30;99.90;;;;;;6153952;23;20185;-82
2021/10/06 09:59:18;;;;;;;4.93;3.70;;;15.20;99.90;;;;;;6153778;23;20197;-82
2021/10/06 10:01:47;;;;;;;5.75;3.30;;;15.10;99.90;;;;;;6153192;23;20200;-81
2021/10/06 10:04:15;;;;;;;6.95;4.15;;;15.00;99.90;;;;;;6153381;23;20179;-82
2021/10/06 10:06:42;;;;;;;6.32;3.50;;;14.90;99.90;;;;;;6153516;23;20185;-81
2021/10/06 10:09:13;;;;;;;6.45;4.30;;;14.80;99.90;;;;;;6153854;23;20238;-82
2021/10/06 10:11:42;;;;;;;5.88;3.85;;;14.60;99.90;;;;;;6153210;23;20188;-82
2021/10/06 10:14:10;;;;;;;4.90;4.43;;;14.50;99.90;;;;;;6153805;23;20288;-82
2021/10/06 10:16:39;;;;;;;3.80;3.40;;;14.50;99.90;;;;;;6153835;23;20206;-82
2021/10/06 10:19:09;;;;;;;6.18;3.80;;;14.60;99.90;;;;;;6153372;23;20212;-82
2021/10/06 10:21:39;;;;;;;8.35;3.10;;;14.60;99.90;;;;;;6154115;23;20233;-82
2021/10/06 10:24:12;;;;;;;4.30;3.17;;;14.90;99.90;;;;;;6153863;23;20158;-82
2021/10/06 10:26:58;;;;;;;3.17;2.80;;;15.20;99.90;;;;;;6149637;23;20178;-83
2021/10/06 10:29:38;;;;;;;2.47;2.30;;;15.40;99.90;;;;;;6141643;23;20204;-85
2021/10/06 10:32:08;;;;;;;4.70;3.05;;;16.10;99.90;;;;;;6141118;23;20271;-84
2021/10/06 10:35:00;;;;;;;4.63;2.90;;;16.50;99.90;;;;;;6138872;23;20226;-84
2021/10/06 10:38:16;;;;;;;2.88;1.90;;;16.80;99.90;;;;;;6126206;23;20447;-83
2021/10/06 10:41:04;;;;;;;5.53;2.40;;;16.80;99.90;;;;;;6144552;23;20188;-84
2021/10/06 10:43:32;;;;;;;6.03;2.60;;;17.10;99.90;;;;;;6135576;23;20442;-83
2021/10/06 10:46:10;;;;;;;7.67;2.40;;;17.30;99.90;;;;;;6142532;23;20263;-82
2021/10/06 10:49:01;;;;;;;3.93;2.17;;;17.20;99.90;;;;;;6138859;23;20439;-83
2021/10/06 10:51:48;;;;;;;4.20;2.07;;;17.60;99.90;;;;;;6137717;23;20396;-84
2021/10/06 10:54:30;;;;;;;3.57;2.17;;;17.90;99.90;;;;;;6137589;23;20389;-84
2021/10/06 10:56:58;;;;;;;3.50;2.40;;;17.90;99.90;;;;;;6136935;23;20400;-84
2021/10/06 10:59:26;;;;;;;2.00;1.80;;;17.80;99.90;;;;;;6137304;23;20414;-83
2021/10/06 11:01:59;;;;;;;6.13;2.50;;;17.90;99.90;;;;;;6137632;23;20555;-85
2021/10/06 11:04:28;;;;;;;2.80;1.90;;;17.90;99.90;;;;;;6140295;23;20450;-84
2021/10/06 11:06:57;;;;;;;6.23;1.97;;;17.60;99.90;;;;;;6138050;23;20413;-83
2021/10/06 11:09:42;;;;;;;4.10;1.90;;;17.30;99.90;;;;;;6139420;23;20459;-84
2021/10/06 11:12:38;;;;;;;3.72;2.42;;;16.80;99.90;;;;;;6138424;23;20188;-83
2021/10/06 11:15:23;;;;;;;4.57;2.60;;;16.40;99.90;;;;;;6138408;23;20207;-84
2021/10/06 11:18:13;;;;;;;5.28;2.45;;;16.10;99.90;;;;;;6138735;23;20220;-84
2021/10/06 11:20:43;;;;;;;3.78;2.17;;;15.90;99.90;;;;;;6082941;23;20205;-83
2021/10/06 11:23:43;;;;;;;2.47;1.70;;;16.10;99.90;;;;;;6137230;23;20174;-84
2021/10/06 11:26:13;;;;;;;6.05;2.22;;;16.00;99.90;;;;;;6129816;23;20174;-84
2021/10/06 11:28:41;;;;;;;2.35;1.50;;;15.90;99.90;;;;;;6137914;23;20215;-84
2021/10/06 11:31:10;;;;;;;2.55;1.88;;;15.70;99.90;;;;;;6139134;23;20224;-85
2021/10/06 11:33:39;;;;;;;3.40;2.30;;;15.70;99.90;;;;;;6137667;23;20188;-86
2021/10/06 11:36:09;;;;;;;4.72;1.98;;;15.70;99.90;;;;;;6137119;23;20233;-84
2021/10/06 11:38:36;;;;;;;2.72;1.80;;;15.90;99.90;;;;;;6141138;23;20204;-84
2021/10/06 11:41:04;;;;;;;3.03;1.60;;;15.70;99.90;;;;;;6140250;23;20199;-84
2021/10/06 11:43:42;;;;;;;5.55;2.40;;;15.40;99.90;;;;;;6148206;23;20229;-85
2021/10/06 11:46:13;;;;;;;3.58;1.30;;;15.40;99.90;;;;;;6148474;23;20207;-83
2021/10/06 11:48:48;;;;;;;2.72;1.85;;;15.30;99.90;;;;;;6142821;23;20225;-83
2021/10/06 11:51:15;;;;;;;2.10;1.90;;;15.20;99.90;;;;;;6138226;23;20162;-84
2021/10/06 11:53:45;;;;;;;3.08;2.00;;;15.10;99.90;;;;;;6149525;23;20276;-84
2021/10/06 11:56:27;;;;;;;3.17;2.33;;;15.10;99.90;;;;;;6152770;23;20170;-84
2021/10/06 11:58:55;;;;;;;2.92;1.75;;;15.10;99.90;;;;;;6153354;23;20206;-83
2021/10/06 12:01:22;;;;;;;4.30;2.15;;;15.20;99.90;;;;;;6153807;23;20205;-83
2021/10/06 12:03:51;;;;;;;5.40;2.10;;;15.10;99.90;;;;;;6153406;23;20181;-82
2021/10/06 12:06:23;;;;;;;4.65;2.33;;;14.70;99.90;;;;;;6152660;23;20166;-81
2021/10/06 12:08:51;;;;;;;2.78;2.55;;;14.40;99.90;;;;;;6152616;23;20253;-82
2021/10/06 12:11:19;;;;;;;2.78;2.55;;;14.20;99.90;;;;;;6147803;23;20185;-83
2021/10/06 12:13:47;;;;;;;4.05;2.92;;;14.10;99.90;;;;;;6142179;23;20166;-83
2021/10/06 12:16:26;;;;;;;3.88;2.60;;;14.00;99.90;;;;;;6143023;23;20185;-85
2021/10/06 12:18:56;;;;;;;5.38;2.50;;;14.20;99.90;;;;;;6142776;23;20208;-84
2021/10/06 12:21:24;;;;;;;3.10;2.80;;;14.40;99.90;;;;;;6142339;23;20269;-84
2021/10/06 12:23:51;;;;;;;3.78;2.53;;;14.60;99.90;;;;;;6140060;23;20186;-84
2021/10/06 12:26:20;;;;;;;3.45;2.40;;;14.80;99.90;;;;;;6140641;23;20221;-84
2021/10/06 12:28:52;;;;;;;2.90;2.70;;;14.90;99.90;;;;;;6140476;23;20189;-82
2021/10/06 12:31:24;;;;;;;2.90;2.60;;;15.10;99.90;;;;;;6141941;23;20547;-85
2021/10/06 12:34:05;;;;;;;3.30;2.40;;;15.30;99.90;;;;;;6140529;23;20177;-84
2021/10/06 12:36:32;;;;;;;2.00;1.50;;;15.30;99.90;;;;;;6140351;23;20158;-84
2021/10/06 12:38:59;;;;;;;7.78;2.42;;;15.50;99.90;;;;;;6141494;23;20230;-83
2021/10/06 12:41:38;;;;;;;4.57;2.38;;;15.50;99.90;;;;;;6140674;23;20194;-83
2021/10/06 12:44:19;;;;;;;1.63;1.50;;;15.50;99.90;;;;;;6140077;23;20197;-84
2021/10/06 12:46:47;;;;;;;2.13;1.92;;;15.60;99.90;;;;;;6140315;23;20184;-85
2021/10/06 12:49:16;;;;;;;2.30;1.80;;;15.80;99.90;;;;;;6141189;23;20261;-84
2021/10/06 12:51:44;;;;;;;1.95;1.75;;;15.70;99.90;;;;;;6141103;23;20270;-84
2021/10/06 12:54:18;;;;;;;3.33;2.35;;;15.70;99.90;;;;;;6140915;23;20193;-85